Disclaimer

Please do not use the information listed here in-flight or in-navigation, as they are not provided to us by the airports but are provided by volunteers, so they might be outdated.

Search


Regions


Airport information page

Radio informations:
METEO INFO - 124.8 MHz
Approach/Tower (APP/TWR) - 129.4 MHz

Airport informations:
Latitude: 56° 31' 03.00" N
Longitude: 021° 05' 49.00" E
Elevation: 16 feet - 5 meters
Operating hours: Remarks
Operating agency: Civil government, landing fees and diplomatic clearance may be required
Timezone: UTC+2(+3DT) - Last Sunday in March to last Sunday in September
Fuel: Jet A1, without icing nhibitor.

100/130 MIL Spec, low lead, aviation gasoline (BLUE)

Runway information:
07/25 - 6568 x 131 feet< - >2002 x 40 meters

Recent METARs:
EVLA 170750Z AUTO 18003KT 160V230 9999 OVC019/// 04/03 Q1041
EVLA 170820Z AUTO VRB02KT 9999 OVC019/// 04/03 Q1041
EVLA 170850Z AUTO VRB01KT 9999 OVC020/// 04/03 Q1041

Airport on the map: